Wednesday, August 15, 2018, 11:09 AM GMT
Back to Local

CXKT, Kentville , N. S.

Location: , , Canada Lat: 45.067
Local Time: 11:09 AM GMT (11:09 GMT) Lon: -64.483
Time Zone: GMT Elev: 160 ft

Show me the last for .
Show Coded

Time T Td Feel RH Dir Speed Gust Alt SLP Vis Weather Sky Remarks
2018-08-15 10:00 71 67 76 86 190° 3 - - 29.85 0 None
2018-08-15 09:00 71 67 76 87 220° 5 - - 29.85 0 None
2018-08-15 08:00 71 67 76 88 210° 3 - - 29.85 0 None
2018-08-15 07:00 69 68 - 96 210° 3 - - 29.86 0 None
2018-08-15 06:00 72 68 76 87 210° 2 - - 29.87 0 None
2018-08-15 05:00 73 69 77 86 210° 5 - - 29.88 0 None
2018-08-15 04:00 71 69 76 95 210° 2 - - 29.88 0 None
2018-08-15 03:00 72 69 76 91 220° 1 - - 29.88 0 None
2018-08-15 02:00 73 70 77 90 190° 3 - - 29.89 0 None
2018-08-15 01:00 73 69 77 89 200° 5 - - 29.89 0 None
2018-08-15 00:00 73 69 77 87 250° 2 - - 29.89 0 None
2018-08-14 23:00 74 70 78 85 180° 1 - - 29.89 0 None
2018-08-14 22:00 75 70 79 85 160° 1 - - 29.89 0 None
2018-08-14 21:00 76 71 79 84 180° 2 - - 29.90 0 None
2018-08-14 20:00 76 71 80 84 160° 2 - - 29.92 0 None
2018-08-14 19:00 74 72 79 90 150° 3 - - 29.93 0 1-hr Precip Total: 0.09"
2018-08-14 18:00 74 70 78 89 160° 2 - - 29.95 0 1-hr Precip Total: 0.04"
2018-08-14 17:00 78 68 81 72 140° 5 - - 29.95 0 None
2018-08-14 16:00 78 69 81 73 90° 2 - - 29.96 0 None
2018-08-14 15:00 77 67 80 70 180° 5 - - 29.98 0 None
2018-08-14 14:00 77 67 80 72 160° 8 - - 29.99 0 None
2018-08-14 13:00 75 66 78 73 180° 5 - - 29.99 0 None
2018-08-14 12:00 71 65 76 80 30° 1 - - 30.01 0 None

Support USWX by starting your Amazon purchase here.